George Allen — WDF9749 — position and weather

sailwx.info

Track history (hours):
 
Tides and Currents Weather Stations Pressure Air Temp Water Temp Dewpoint Dewpoint Depression Visibility Wind Speed Wind Dir Waves Ship Positions

George Allen

Owner: Blessey Enterprises, Inc., Harahan, LA. More information available from US FCC via Universal Licensing System and Coast Guard Vessel Documentation Center.

Last reported at 2015-May-05 11:31 UTC. Time now 2015-May-05 13:14 UTC.
Position N 29°47' W 095°05'.

Length 25 m.

Type: Towing. MMSI: 367508440.

Date/timePositionNaut miles runAvg speedWind from/ knotsBaromVisibWave heightAir tempDewpointWater temp
2015-May-05 11:31N 29°47' W 095°05'0 0.3
2015-May-05 10:32N 29°47' W 095°04'4 0.9
2015-May-05 06:33N 29°44' W 095°03'6 5.9
2015-May-05 05:33N 29°40' W 094°58'6 6.3
2015-May-05 04:33N 29°34' W 094°55'8 7.0
2015-May-05 03:27N 29°27' W 094°51'  
2015-May-01 13:29N 29°22' W 094°47'8 6.6
2015-May-01 12:18N 29°29' W 094°52'6 7.8
2015-May-01 11:33N 29°34' W 094°55'8 7.8
2015-May-01 10:33N 29°41' W 094°59'7 6.7
2015-May-01 09:33N 29°46' W 095°05'2 0.9
2015-May-01 07:33N 29°47' W 095°04'1 0.6
2015-May-01 06:33N 29°47' W 095°04'2 1.9
2015-May-01 05:33N 29°46' W 095°06'1 0.9
2015-May-01 04:33N 29°46' W 095°07'0 0.0
2015-May-01 03:33N 29°46' W 095°07'0 0.0
2015-May-01 02:33N 29°46' W 095°07'0 0.0
2015-May-01 01:33N 29°46' W 095°07'0 0.0
2015-May-01 00:33N 29°46' W 095°07'0 0.0
2015-Apr-30 23:33N 29°46' W 095°07'0 0.0
2015-Apr-30 22:33N 29°46' W 095°07'0 0.0
2015-Apr-30 21:33N 29°46' W 095°07'0 0.0
2015-Apr-30 20:33N 29°46' W 095°07'0 0.0
2015-Apr-30 19:33N 29°46' W 095°07'0 0.0
2015-Apr-30 18:33N 29°46' W 095°07'0 0.0
2015-Apr-30 17:33N 29°46' W 095°07'0 0.0
2015-Apr-30 16:33N 29°46' W 095°07'0 0.0
2015-Apr-30 15:33N 29°46' W 095°07'0 0.1
2015-Apr-30 14:33N 29°46' W 095°07'0 0.1
2015-Apr-30 13:33N 29°46' W 095°07'0 0.0
2015-Apr-30 12:33N 29°46' W 095°07'0 0.0
2015-Apr-30 11:33N 29°46' W 095°07'0 0.0
2015-Apr-30 10:33N 29°46' W 095°07'0 0.0
2015-Apr-30 09:33N 29°46' W 095°07'0 0.0
2015-Apr-30 08:33N 29°46' W 095°07'0 0.0
2015-Apr-30 07:33N 29°46' W 095°07'0 0.0
2015-Apr-30 06:33N 29°46' W 095°07'0 0.0
2015-Apr-30 05:33N 29°46' W 095°07'0 0.0
2015-Apr-30 04:33N 29°46' W 095°07'0 0.0
2015-Apr-30 03:34N 29°46' W 095°07'0 0.0
2015-Apr-30 02:32N 29°46' W 095°07'0 0.0
2015-Apr-30 01:33N 29°46' W 095°07'0 0.0
2015-Apr-30 00:33N 29°46' W 095°07'0 0.0
2015-Apr-29 23:33N 29°46' W 095°07'0 0.0
2015-Apr-29 22:33N 29°46' W 095°07'2 1.6
2015-Apr-29 21:33N 29°46' W 095°05'2 1.5
2015-Apr-29 20:33N 29°47' W 095°05'0 0.1
2015-Apr-29 19:33N 29°47' W 095°05'0 0.0
2015-Apr-29 18:33N 29°47' W 095°05'0 0.0
2015-Apr-29 17:32N 29°47' W 095°05'0 0.0
2015-Apr-29 16:33N 29°47' W 095°05'0 0.1
2015-Apr-29 15:33N 29°47' W 095°05'0 0.0
2015-Apr-29 14:33N 29°47' W 095°05'0 0.1
2015-Apr-29 13:33N 29°47' W 095°05'0 0.0
2015-Apr-29 12:33N 29°47' W 095°05'0 0.0
2015-Apr-29 11:33N 29°47' W 095°05'0 0.1
2015-Apr-29 10:33N 29°47' W 095°05'0 0.0
2015-Apr-29 09:33N 29°47' W 095°05'0 0.0
2015-Apr-29 08:33N 29°47' W 095°05'0 0.0
2015-Apr-29 07:33N 29°47' W 095°05'0 0.0
2015-Apr-29 06:33N 29°47' W 095°05'0 0.0
2015-Apr-29 05:33N 29°47' W 095°05'0 0.0
2015-Apr-29 04:33N 29°47' W 095°05'0 0.1
2015-Apr-29 03:33N 29°47' W 095°05'0 0.0
2015-Apr-29 02:33N 29°47' W 095°05'0 0.1
2015-Apr-29 01:34N 29°47' W 095°05'0 0.1
2015-Apr-29 00:33N 29°47' W 095°05'0 0.1
2015-Apr-28 23:33N 29°47' W 095°05'0 0.1
2015-Apr-28 22:33N 29°47' W 095°05'0 0.0
2015-Apr-28 21:33N 29°47' W 095°05'0 0.0
2015-Apr-28 20:33N 29°47' W 095°05'0 0.0
2015-Apr-28 19:33N 29°47' W 095°05'0 0.0
2015-Apr-28 18:33N 29°47' W 095°05'0 0.0
2015-Apr-28 17:33N 29°47' W 095°05'0 0.1
2015-Apr-28 16:34N 29°47' W 095°05'0 0.1
2015-Apr-28 15:32N 29°47' W 095°05'0 0.0
2015-Apr-28 14:26N 29°47' W 095°05'0 0.0
2015-Apr-28 13:23N 29°47' W 095°05'0 0.0
2015-Apr-28 12:33N 29°47' W 095°05'0 0.0
2015-Apr-28 11:24N 29°47' W 095°05'0 0.0
2015-Apr-28 10:26N 29°47' W 095°05'0 0.0
2015-Apr-28 09:33N 29°47' W 095°05'0 0.0
2015-Apr-28 08:33N 29°47' W 095°05'0 0.0
2015-Apr-28 07:32N 29°47' W 095°05'0 0.0
2015-Apr-28 06:28N 29°47' W 095°05'0 0.1
2015-Apr-28 05:33N 29°47' W 095°05'0 0.1
2015-Apr-28 04:33N 29°47' W 095°05'0 0.1
2015-Apr-28 03:19N 29°47' W 095°05'0 0.0
2015-Apr-28 02:23N 29°47' W 095°05'0 0.0
2015-Apr-28 01:33N 29°47' W 095°05'0 0.0
2015-Apr-28 00:33N 29°47' W 095°05'0 0.0
2015-Apr-27 23:34N 29°47' W 095°05'0 0.0
2015-Apr-27 22:33N 29°47' W 095°05'0 0.0
2015-Apr-27 21:33N 29°47' W 095°05'0 0.0
2015-Apr-27 20:33N 29°47' W 095°05'1 0.7
2015-Apr-27 19:34N 29°47' W 095°05'0 0.1
2015-Apr-27 18:34N 29°47' W 095°05'0 0.0
2015-Apr-27 17:34N 29°47' W 095°05'0 0.0
2015-Apr-27 16:34N 29°47' W 095°05'1 0.7
2015-Apr-27 15:34N 29°46' W 095°05'2 1.8
2015-Apr-27 14:33N 29°45' W 095°06'0 0.0
2015-Apr-27 13:28N 29°45' W 095°06'0 0.0
2015-Apr-27 12:33N 29°45' W 095°06'0 0.0
2015-Apr-27 11:32N 29°45' W 095°06'0 0.0
2015-Apr-27 10:33N 29°45' W 095°06'0 0.0
2015-Apr-27 09:33N 29°45' W 095°06'0 0.0
2015-Apr-27 08:33N 29°45' W 095°06'0 0.0
2015-Apr-27 07:33N 29°45' W 095°06'0 0.0
2015-Apr-27 06:33N 29°45' W 095°06'0 0.0
2015-Apr-27 05:34N 29°45' W 095°06'0 0.0
2015-Apr-27 04:33N 29°45' W 095°06'0 0.0
2015-Apr-27 03:33N 29°45' W 095°06'0 0.0
2015-Apr-27 02:33N 29°45' W 095°06'0 0.0
2015-Apr-27 01:33N 29°45' W 095°06'0 0.0
2015-Apr-27 00:33N 29°45' W 095°06'0 0.0
2015-Apr-26 23:34N 29°45' W 095°06'0 0.0
2015-Apr-26 22:33N 29°45' W 095°06'0 0.0
2015-Apr-26 21:33N 29°45' W 095°06'3 2.9
2015-Apr-26 20:33N 29°47' W 095°04'1 1.3
2015-Apr-26 19:33N 29°46' W 095°05'0 0.0
2015-Apr-26 18:33N 29°46' W 095°05'0 0.0
2015-Apr-26 17:34N 29°46' W 095°05'0 0.0
2015-Apr-26 16:33N 29°46' W 095°05'0 0.0
2015-Apr-26 15:33N 29°46' W 095°05'0 0.0
2015-Apr-26 14:33N 29°46' W 095°05'0 0.0
2015-Apr-26 13:33N 29°46' W 095°05'0 0.0
2015-Apr-26 12:33N 29°46' W 095°05'1 1.3
2015-Apr-26 11:34N 29°45' W 095°04'7 6.7
2015-Apr-26 10:33N 29°40' W 094°59'8 8.1
2015-Apr-26 09:34N 29°33' W 094°54'8 7.6
2015-Apr-26 08:32N 29°26' W 094°50'4 3.8
2015-Apr-26 07:33N 29°22' W 094°50'  
Track history (hours):
 
Tides and Currents Weather Stations Pressure Air Temp Water Temp Dewpoint Dewpoint Depression Visibility Wind Speed Wind Dir Waves Ship Positions

George Allen

Owner: Blessey Enterprises, Inc., Harahan, LA. More information available from US FCC via Universal Licensing System and Coast Guard Vessel Documentation Center.

Last reported at 2015-May-05 11:31 UTC. Time now 2015-May-05 13:14 UTC.
Position N 29°47' W 095°05'.

Length 25 m.

Type: Towing. MMSI: 367508440.

Date/timePositionNaut miles runAvg speedWind from/ knotsBaromVisibWave heightAir tempDewpointWater temp
2015-May-05 11:31N 29°47' W 095°05'0 0.3
2015-May-05 10:32N 29°47' W 095°04'4 0.9
2015-May-05 06:33N 29°44' W 095°03'6 5.9
2015-May-05 05:33N 29°40' W 094°58'6 6.3
2015-May-05 04:33N 29°34' W 094°55'8 7.0
2015-May-05 03:27N 29°27' W 094°51'  
2015-May-01 13:29N 29°22' W 094°47'8 6.6
2015-May-01 12:18N 29°29' W 094°52'6 7.8
2015-May-01 11:33N 29°34' W 094°55'8 7.8
2015-May-01 10:33N 29°41' W 094°59'7 6.7
2015-May-01 09:33N 29°46' W 095°05'2 0.9
2015-May-01 07:33N 29°47' W 095°04'1 0.6
2015-May-01 06:33N 29°47' W 095°04'2 1.9
2015-May-01 05:33N 29°46' W 095°06'1 0.9
2015-May-01 04:33N 29°46' W 095°07'0 0.0
2015-May-01 03:33N 29°46' W 095°07'0 0.0
2015-May-01 02:33N 29°46' W 095°07'0 0.0
2015-May-01 01:33N 29°46' W 095°07'0 0.0
2015-May-01 00:33N 29°46' W 095°07'0 0.0
2015-Apr-30 23:33N 29°46' W 095°07'0 0.0
2015-Apr-30 22:33N 29°46' W 095°07'0 0.0
2015-Apr-30 21:33N 29°46' W 095°07'0 0.0
2015-Apr-30 20:33N 29°46' W 095°07'0 0.0
2015-Apr-30 19:33N 29°46' W 095°07'0 0.0
2015-Apr-30 18:33N 29°46' W 095°07'0 0.0
2015-Apr-30 17:33N 29°46' W 095°07'0 0.0
2015-Apr-30 16:33N 29°46' W 095°07'0 0.0
2015-Apr-30 15:33N 29°46' W 095°07'0 0.1
2015-Apr-30 14:33N 29°46' W 095°07'0 0.1
2015-Apr-30 13:33N 29°46' W 095°07'0 0.0
2015-Apr-30 12:33N 29°46' W 095°07'0 0.0
2015-Apr-30 11:33N 29°46' W 095°07'0 0.0
2015-Apr-30 10:33N 29°46' W 095°07'0 0.0
2015-Apr-30 09:33N 29°46' W 095°07'0 0.0
2015-Apr-30 08:33N 29°46' W 095°07'0 0.0
2015-Apr-30 07:33N 29°46' W 095°07'0 0.0
2015-Apr-30 06:33N 29°46' W 095°07'0 0.0
2015-Apr-30 05:33N 29°46' W 095°07'0 0.0
2015-Apr-30 04:33N 29°46' W 095°07'0 0.0
2015-Apr-30 03:34N 29°46' W 095°07'0 0.0
2015-Apr-30 02:32N 29°46' W 095°07'0 0.0
2015-Apr-30 01:33N 29°46' W 095°07'0 0.0
2015-Apr-30 00:33N 29°46' W 095°07'0 0.0
2015-Apr-29 23:33N 29°46' W 095°07'0 0.0
2015-Apr-29 22:33N 29°46' W 095°07'2 1.6
2015-Apr-29 21:33N 29°46' W 095°05'2 1.5
2015-Apr-29 20:33N 29°47' W 095°05'0 0.1
2015-Apr-29 19:33N 29°47' W 095°05'0 0.0
2015-Apr-29 18:33N 29°47' W 095°05'0 0.0
2015-Apr-29 17:32N 29°47' W 095°05'0 0.0
2015-Apr-29 16:33N 29°47' W 095°05'0 0.1
2015-Apr-29 15:33N 29°47' W 095°05'0 0.0
2015-Apr-29 14:33N 29°47' W 095°05'0 0.1
2015-Apr-29 13:33N 29°47' W 095°05'0 0.0
2015-Apr-29 12:33N 29°47' W 095°05'0 0.0
2015-Apr-29 11:33N 29°47' W 095°05'0 0.1
2015-Apr-29 10:33N 29°47' W 095°05'0 0.0
2015-Apr-29 09:33N 29°47' W 095°05'0 0.0
2015-Apr-29 08:33N 29°47' W 095°05'0 0.0
2015-Apr-29 07:33N 29°47' W 095°05'0 0.0
2015-Apr-29 06:33N 29°47' W 095°05'0 0.0
2015-Apr-29 05:33N 29°47' W 095°05'0 0.0
2015-Apr-29 04:33N 29°47' W 095°05'0 0.1
2015-Apr-29 03:33N 29°47' W 095°05'0 0.0
2015-Apr-29 02:33N 29°47' W 095°05'0 0.1
2015-Apr-29 01:34N 29°47' W 095°05'0 0.1
2015-Apr-29 00:33N 29°47' W 095°05'0 0.1
2015-Apr-28 23:33N 29°47' W 095°05'0 0.1
2015-Apr-28 22:33N 29°47' W 095°05'0 0.0
2015-Apr-28 21:33N 29°47' W 095°05'0 0.0
2015-Apr-28 20:33N 29°47' W 095°05'0 0.0
2015-Apr-28 19:33N 29°47' W 095°05'0 0.0
2015-Apr-28 18:33N 29°47' W 095°05'0 0.0
2015-Apr-28 17:33N 29°47' W 095°05'0 0.1
2015-Apr-28 16:34N 29°47' W 095°05'0 0.1
2015-Apr-28 15:32N 29°47' W 095°05'0 0.0
2015-Apr-28 14:26N 29°47' W 095°05'0 0.0
2015-Apr-28 13:23N 29°47' W 095°05'0 0.0
2015-Apr-28 12:33N 29°47' W 095°05'0 0.0
2015-Apr-28 11:24N 29°47' W 095°05'0 0.0
2015-Apr-28 10:26N 29°47' W 095°05'0 0.0
2015-Apr-28 09:33N 29°47' W 095°05'0 0.0
2015-Apr-28 08:33N 29°47' W 095°05'0 0.0
2015-Apr-28 07:32N 29°47' W 095°05'0 0.0
2015-Apr-28 06:28N 29°47' W 095°05'0 0.1
2015-Apr-28 05:33N 29°47' W 095°05'0 0.1
2015-Apr-28 04:33N 29°47' W 095°05'0 0.1
2015-Apr-28 03:19N 29°47' W 095°05'0 0.0
2015-Apr-28 02:23N 29°47' W 095°05'0 0.0
2015-Apr-28 01:33N 29°47' W 095°05'0 0.0
2015-Apr-28 00:33N 29°47' W 095°05'0 0.0
2015-Apr-27 23:34N 29°47' W 095°05'0 0.0
2015-Apr-27 22:33N 29°47' W 095°05'0 0.0
2015-Apr-27 21:33N 29°47' W 095°05'0 0.0
2015-Apr-27 20:33N 29°47' W 095°05'1 0.7
2015-Apr-27 19:34N 29°47' W 095°05'0 0.1
2015-Apr-27 18:34N 29°47' W 095°05'0 0.0
2015-Apr-27 17:34N 29°47' W 095°05'0 0.0
2015-Apr-27 16:34N 29°47' W 095°05'1 0.7
2015-Apr-27 15:34N 29°46' W 095°05'2 1.8
2015-Apr-27 14:33N 29°45' W 095°06'0 0.0
2015-Apr-27 13:28N 29°45' W 095°06'0 0.0
2015-Apr-27 12:33N 29°45' W 095°06'0 0.0
2015-Apr-27 11:32N 29°45' W 095°06'0 0.0
2015-Apr-27 10:33N 29°45' W 095°06'0 0.0
2015-Apr-27 09:33N 29°45' W 095°06'0 0.0
2015-Apr-27 08:33N 29°45' W 095°06'0 0.0
2015-Apr-27 07:33N 29°45' W 095°06'0 0.0
2015-Apr-27 06:33N 29°45' W 095°06'0 0.0
2015-Apr-27 05:34N 29°45' W 095°06'0 0.0
2015-Apr-27 04:33N 29°45' W 095°06'0 0.0
2015-Apr-27 03:33N 29°45' W 095°06'0 0.0
2015-Apr-27 02:33N 29°45' W 095°06'0 0.0
2015-Apr-27 01:33N 29°45' W 095°06'0 0.0
2015-Apr-27 00:33N 29°45' W 095°06'0 0.0
2015-Apr-26 23:34N 29°45' W 095°06'0 0.0
2015-Apr-26 22:33N 29°45' W 095°06'0 0.0
2015-Apr-26 21:33N 29°45' W 095°06'3 2.9
2015-Apr-26 20:33N 29°47' W 095°04'1 1.3
2015-Apr-26 19:33N 29°46' W 095°05'0 0.0
2015-Apr-26 18:33N 29°46' W 095°05'0 0.0
2015-Apr-26 17:34N 29°46' W 095°05'0 0.0
2015-Apr-26 16:33N 29°46' W 095°05'0 0.0
2015-Apr-26 15:33N 29°46' W 095°05'0 0.0
2015-Apr-26 14:33N 29°46' W 095°05'0 0.0
2015-Apr-26 13:33N 29°46' W 095°05'0 0.0
2015-Apr-26 12:33N 29°46' W 095°05'1 1.3
2015-Apr-26 11:34N 29°45' W 095°04'7 6.7
2015-Apr-26 10:33N 29°40' W 094°59'8 8.1
2015-Apr-26 09:34N 29°33' W 094°54'8 7.6
2015-Apr-26 08:32N 29°26' W 094°50'4 3.8
2015-Apr-26 07:33N 29°22' W 094°50'  

Dump ship's entire track history